Portada
METAR-TAF:

METAR-TAF

Aeroports :

West Memphis, Arkansas, Estats Units d'Amèrica

latitud: 35-08N, longitud: 090-14W, altitud: 65 m

Observació

L'informe es va fer fa 37 minuts, a les 09:53 UTC
Vent 9 kt del Sud
Temperatura 24°C
Humitat 74%
Pressió 1011 hPa
Visibilitat: 16.1 km
Cel cobert a una alçada de 8500 ft

METAR: KAWM 220953Z AUTO 19009KT 10SM OVC085 24/19 A2985 RMK AO2 SLP103 T02440189

Hora: 05:30 (10:30 UTC)


TAF: manca

Observacions i pronòstics meteorològics de més de 4000 aeroports (METAR i TAF).

Les estacions disponibles són els punts grocs i vermells al mapa.

Posi el ratolí al punt desitjat per veure el nom de l'estació.

Feu clic per veure les observacions i els pronòstics meteorològics.

Per canviar el mapa: feu clic els botons verds amb una creu de color negre per apropar; al botó verd amb un guió per allunyar la imatge; o en les fletxes verdes per a mapes adjacents.


METAR-TAF: